Time;durP1;ratioP1;P1;durP2;ratioP2;P2;SDS_P1;SDS_P2;PMS_P1;PMS_P2;Temp;Humidity;BMP_temperature;BMP_pressure;BME280_temperature;BME280_humidity;BME280_pressure;Samples;Min_cycle;Max_cycle;Signal;HPM_P1;HPM_P2
2022/12/31 00:02:22;;;;;;;19.50;13.00;;;6.30;99.90;;;;;;5013717;28;20201;-87
2022/12/31 00:04:49;;;;;;;18.40;11.32;;;6.40;99.90;;;;;;5012733;28;20205;-86
2022/12/31 00:07:16;;;;;;;16.00;10.40;;;6.30;99.90;;;;;;5021647;28;20244;-88
2022/12/31 00:09:44;;;;;;;16.33;11.63;;;6.40;99.90;;;;;;5027246;28;20215;-89
2022/12/31 00:12:11;;;;;;;17.98;10.23;;;6.50;99.90;;;;;;5020571;28;20394;-88
2022/12/31 00:14:38;;;;;;;15.70;9.85;;;6.50;99.90;;;;;;5017697;28;20216;-85
2022/12/31 00:17:06;;;;;;;18.55;11.75;;;6.60;99.90;;;;;;5019585;28;20197;-87
2022/12/31 00:19:33;;;;;;;14.45;9.93;;;6.70;99.90;;;;;;5021467;28;20439;-85
2022/12/31 00:22:02;;;;;;;20.40;10.35;;;6.80;99.90;;;;;;5025711;28;20268;-85
2022/12/31 00:24:29;;;;;;;14.15;7.90;;;6.80;99.90;;;;;;5022740;28;20635;-88
2022/12/31 00:26:56;;;;;;;10.93;8.02;;;6.90;99.90;;;;;;5020969;28;20200;-87
2022/12/31 00:29:23;;;;;;;11.95;7.95;;;6.90;99.90;;;;;;5015868;28;20497;-86
2022/12/31 00:31:50;;;;;;;11.32;8.40;;;7.00;99.90;;;;;;5018082;28;20244;-82
2022/12/31 00:34:17;;;;;;;11.07;7.65;;;7.10;99.90;;;;;;5023608;28;20256;-86
2022/12/31 00:36:44;;;;;;;13.75;9.10;;;7.20;99.90;;;;;;5020829;28;20200;-87
2022/12/31 00:39:12;;;;;;;13.85;9.93;;;7.10;99.90;;;;;;5021417;28;20340;-88
2022/12/31 00:41:39;;;;;;;13.88;9.20;;;7.20;99.90;;;;;;5024209;28;20505;-85
2022/12/31 00:44:05;;;;;;;9.75;8.32;;;7.10;99.90;;;;;;5021181;28;20190;-84
2022/12/31 00:46:33;;;;;;;14.20;7.75;;;7.10;99.90;;;;;;5027370;28;20203;-87
2022/12/31 00:49:00;;;;;;;14.48;7.95;;;7.20;99.90;;;;;;5018573;28;20197;-88
2022/12/31 00:51:28;;;;;;;9.52;6.90;;;7.20;99.90;;;;;;5009447;28;20415;-85
2022/12/31 00:53:56;;;;;;;14.45;10.75;;;7.30;99.90;;;;;;5017475;28;20271;-87
2022/12/31 00:56:25;;;;;;;11.90;9.25;;;7.30;99.90;;;;;;5024972;28;20389;-84
2022/12/31 00:58:53;;;;;;;14.63;9.48;;;7.40;99.90;;;;;;5019494;28;20263;-85
2022/12/31 01:01:26;;;;;;;20.33;12.43;;;7.60;99.90;;;;;;5010986;28;20206;-85
2022/12/31 01:04:00;;;;;;;15.77;9.77;;;7.50;99.90;;;;;;4993599;28;20178;-87
2022/12/31 01:06:27;;;;;;;15.02;8.55;;;7.50;99.90;;;;;;5021947;28;20237;-84
2022/12/31 01:08:54;;;;;;;13.30;7.07;;;7.40;99.90;;;;;;5015102;28;20225;-85
2022/12/31 01:11:23;;;;;;;11.85;7.95;;;7.50;99.90;;;;;;5012051;28;20226;-85
2022/12/31 01:13:53;;;;;;;11.85;7.45;;;7.60;99.90;;;;;;5006490;28;20199;-85
2022/12/31 01:16:33;;;;;;;13.85;8.93;;;7.60;99.90;;;;;;5010862;28;20198;-85
2022/12/31 01:19:07;;;;;;;17.88;9.20;;;7.70;99.90;;;;;;5006599;28;20197;-84
2022/12/31 01:21:37;;;;;;;9.43;7.18;;;7.70;99.90;;;;;;5011384;28;20509;-85
2022/12/31 01:24:04;;;;;;;14.50;9.65;;;7.70;99.90;;;;;;5015345;28;20284;-86
2022/12/31 01:26:33;;;;;;;10.75;6.97;;;7.70;99.90;;;;;;5011089;28;20205;-84
2022/12/31 01:29:01;;;;;;;12.93;7.10;;;7.80;99.90;;;;;;5008481;28;20202;-87
2022/12/31 01:31:28;;;;;;;9.18;6.65;;;7.90;99.90;;;;;;5015591;28;20223;-86
2022/12/31 01:33:56;;;;;;;9.88;7.85;;;7.90;99.90;;;;;;5014978;28;20207;-86
2022/12/31 01:36:27;;;;;;;6.95;6.22;;;8.00;99.90;;;;;;5013952;28;20199;-84
2022/12/31 01:38:57;;;;;;;8.85;6.85;;;8.00;99.90;;;;;;5014871;28;20206;-85
2022/12/31 01:41:30;;;;;;;7.22;6.25;;;8.10;99.90;;;;;;5011951;28;20208;-84
2022/12/31 01:43:59;;;;;;;5.93;5.28;;;8.10;99.90;;;;;;5006232;28;20731;-85
2022/12/31 01:46:36;;;;;;;9.57;6.75;;;8.20;99.90;;;;;;5011100;28;20204;-84
2022/12/31 01:49:32;;;;;;;7.22;5.85;;;8.20;99.90;;;;;;5010988;28;20193;-85
2022/12/31 01:52:11;;;;;;;9.20;6.55;;;8.20;99.90;;;;;;5014948;28;20265;-84
2022/12/31 01:54:47;;;;;;;6.63;5.60;;;8.20;99.90;;;;;;5013142;28;20206;-85
2022/12/31 01:57:15;;;;;;;9.68;7.70;;;8.20;99.90;;;;;;5007320;28;20206;-84
2022/12/31 01:59:44;;;;;;;9.70;6.28;;;8.30;99.90;;;;;;5013425;28;20210;-83
2022/12/31 02:02:13;;;;;;;7.07;5.18;;;8.30;99.90;;;;;;5011575;28;20199;-85
2022/12/31 02:04:40;;;;;;;9.45;5.03;;;8.40;99.90;;;;;;5018439;28;20493;-83
2022/12/31 02:07:08;;;;;;;8.52;5.90;;;8.50;99.90;;;;;;5023497;28;20250;-84
2022/12/31 02:09:38;;;;;;;8.02;6.95;;;8.40;99.90;;;;;;5017407;28;20206;-82
2022/12/31 02:12:08;;;;;;;6.07;5.13;;;8.30;99.90;;;;;;5024392;28;20617;-84
2022/12/31 02:14:47;;;;;;;5.63;5.10;;;8.40;99.90;;;;;;5016995;28;20257;-85
2022/12/31 02:17:55;;;;;;;5.28;4.47;;;8.40;99.90;;;;;;5018172;28;20271;-83
2022/12/31 02:20:56;;;;;;;6.90;4.55;;;8.50;99.90;;;;;;5013732;28;20230;-88
2022/12/31 02:23:34;;;;;;;8.02;5.00;;;8.50;99.90;;;;;;4999320;28;20202;-83
2022/12/31 02:26:33;;;;;;;7.90;4.93;;;8.60;99.90;;;;;;5026167;28;20192;-86
2022/12/31 02:29:30;;;;;;;8.13;4.45;;;8.70;99.90;;;;;;5023341;28;20199;-89
2022/12/31 02:32:02;;;;;;;4.55;4.10;;;8.70;99.90;;;;;;5021136;28;20218;-84
2022/12/31 02:34:37;;;;;;;6.05;3.92;;;8.60;99.90;;;;;;5024075;28;20208;-86
2022/12/31 02:37:09;;;;;;;4.82;4.00;;;8.70;99.90;;;;;;5024328;28;20206;-84
2022/12/31 02:39:38;;;;;;;4.03;3.30;;;8.70;99.90;;;;;;5028739;28;20250;-83
2022/12/31 02:42:05;;;;;;;4.28;3.50;;;8.80;99.90;;;;;;5026662;28;20203;-84
2022/12/31 02:44:33;;;;;;;4.32;3.00;;;8.90;99.90;;;;;;5016010;28;20258;-84
2022/12/31 02:47:14;;;;;;;6.03;3.50;;;9.00;99.90;;;;;;5009313;28;20282;-86
2022/12/31 02:50:12;;;;;;;4.43;3.70;;;9.00;99.90;;;;;;5015673;28;20262;-85
2022/12/31 02:52:48;;;;;;;3.90;3.00;;;9.20;99.90;;;;;;5013672;28;20220;-84
2022/12/31 02:55:30;;;;;;;3.03;2.72;;;9.30;99.90;;;;;;5009282;28;20207;-84
2022/12/31 03:04:34;;;;;;;4.40;3.00;;;9.30;99.90;;;;;;5015293;28;20656;-87
2022/12/31 03:07:14;;;;;;;4.32;3.92;;;9.10;99.90;;;;;;5014519;28;20203;-86
2022/12/31 03:09:41;;;;;;;5.03;3.20;;;9.20;99.90;;;;;;5021781;28;20203;-86
2022/12/31 03:14:56;;;;;;;5.20;3.00;;;9.00;99.90;;;;;;5010461;28;20388;-85
2022/12/31 03:17:23;;;;;;;4.35;2.80;;;9.10;99.90;;;;;;5018302;28;20392;-87
2022/12/31 03:22:39;;;;;;;4.85;2.72;;;9.10;99.90;;;;;;5011619;28;20203;-86
2022/12/31 03:27:56;;;;;;;3.63;3.30;;;9.40;99.90;;;;;;5005868;28;20438;-84
2022/12/31 03:30:24;;;;;;;3.90;3.50;;;9.20;99.90;;;;;;5015433;28;20203;-85
2022/12/31 03:32:52;;;;;;;4.90;3.15;;;9.10;99.90;;;;;;5011449;28;20438;-84
2022/12/31 03:35:20;;;;;;;3.85;2.92;;;9.10;99.90;;;;;;5021339;28;20203;-84
2022/12/31 03:37:49;;;;;;;5.65;3.25;;;9.10;99.90;;;;;;5012810;28;20199;-87
2022/12/31 03:40:17;;;;;;;5.15;3.58;;;9.20;99.90;;;;;;5018680;28;20212;-84
2022/12/31 03:42:44;;;;;;;5.80;3.97;;;9.20;99.90;;;;;;5021632;28;20222;-86
2022/12/31 03:45:11;;;;;;;2.95;2.75;;;9.10;99.90;;;;;;5019336;28;20361;-89
2022/12/31 03:47:38;;;;;;;2.83;2.63;;;9.20;99.90;;;;;;5015075;28;20372;-84
2022/12/31 03:50:07;;;;;;;4.05;2.75;;;9.10;99.90;;;;;;5017604;28;20212;-85
2022/12/31 03:52:34;;;;;;;4.10;3.35;;;9.20;99.90;;;;;;5014531;28;20289;-84
2022/12/31 03:55:01;;;;;;;3.83;3.13;;;9.50;99.90;;;;;;5017879;28;20250;-88
2022/12/31 03:57:31;;;;;;;4.00;3.13;;;9.40;99.90;;;;;;5019779;28;20200;-83
2022/12/31 03:59:58;;;;;;;4.50;3.38;;;9.40;99.90;;;;;;5005992;28;20559;-83
2022/12/31 04:02:25;;;;;;;4.47;3.83;;;9.50;99.90;;;;;;5021129;28;20203;-83
2022/12/31 04:04:55;;;;;;;3.55;3.08;;;9.40;99.90;;;;;;5020500;28;20264;-84
2022/12/31 04:07:22;;;;;;;3.70;3.05;;;9.50;99.90;;;;;;5020352;28;20329;-85
2022/12/31 04:09:49;;;;;;;3.58;3.10;;;9.40;99.90;;;;;;5002226;28;20211;-85
2022/12/31 04:12:16;;;;;;;3.20;3.00;;;9.30;99.90;;;;;;5012714;28;20236;-85
2022/12/31 04:14:43;;;;;;;2.65;2.38;;;9.30;99.90;;;;;;5030364;28;20199;-86
2022/12/31 04:17:10;;;;;;;4.40;4.07;;;9.30;99.90;;;;;;5019820;28;20279;-88
2022/12/31 04:19:37;;;;;;;4.75;3.55;;;9.30;99.90;;;;;;5019142;28;20238;-87
2022/12/31 04:22:04;;;;;;;3.50;3.20;;;9.10;99.90;;;;;;5012358;28;20188;-83
2022/12/31 04:24:31;;;;;;;3.25;2.70;;;9.20;99.90;;;;;;5035671;28;20202;-86
2022/12/31 04:26:58;;;;;;;4.28;3.20;;;9.30;99.90;;;;;;5019489;28;20432;-87
2022/12/31 04:29:33;;;;;;;3.50;3.20;;;9.50;99.90;;;;;;5015590;28;20217;-87
2022/12/31 04:32:00;;;;;;;4.55;3.50;;;9.50;99.90;;;;;;5025231;28;20225;-87
2022/12/31 04:34:27;;;;;;;3.45;3.05;;;9.50;99.90;;;;;;5013466;28;20215;-87
2022/12/31 04:36:54;;;;;;;3.70;3.40;;;9.40;99.90;;;;;;5010145;28;20456;-88
2022/12/31 04:39:23;;;;;;;6.18;2.60;;;9.40;99.90;;;;;;5017268;28;20272;-88
2022/12/31 04:41:50;;;;;;;2.85;2.58;;;9.50;99.90;;;;;;5005321;28;20400;-87
2022/12/31 04:44:17;;;;;;;3.42;2.85;;;9.40;99.90;;;;;;5008220;28;20210;-87
2022/12/31 04:46:44;;;;;;;4.90;3.40;;;9.40;99.90;;;;;;5015697;28;20266;-87
2022/12/31 04:49:11;;;;;;;2.53;2.33;;;9.50;99.90;;;;;;5007910;28;20507;-87
2022/12/31 04:51:38;;;;;;;2.58;2.38;;;9.60;99.90;;;;;;5010798;28;20227;-87
2022/12/31 04:54:06;;;;;;;3.80;3.00;;;9.70;99.90;;;;;;5017877;28;20204;-88
2022/12/31 04:56:35;;;;;;;3.85;2.55;;;9.80;99.90;;;;;;5021763;28;20212;-88
2022/12/31 04:59:04;;;;;;;3.13;2.83;;;9.80;99.90;;;;;;5015437;28;20227;-88
2022/12/31 05:01:31;;;;;;;2.30;1.85;;;9.80;99.90;;;;;;5008214;28;20454;-87
2022/12/31 05:03:59;;;;;;;2.30;2.10;;;9.70;99.90;;;;;;5015763;28;20226;-87
2022/12/31 05:06:26;;;;;;;3.92;2.97;;;9.70;99.90;;;;;;5035692;28;20195;-86
2022/12/31 05:08:53;;;;;;;3.10;2.88;;;9.60;99.90;;;;;;5028833;28;20223;-88
2022/12/31 05:11:19;;;;;;;4.10;2.42;;;9.40;99.90;;;;;;5032415;28;20210;-85
2022/12/31 05:13:46;;;;;;;3.28;2.97;;;9.30;99.90;;;;;;5025153;28;20250;-88
2022/12/31 05:16:13;;;;;;;3.95;2.90;;;9.20;99.90;;;;;;5013185;28;20200;-86
2022/12/31 05:18:40;;;;;;;3.08;2.33;;;9.20;99.90;;;;;;5009516;28;20208;-88
2022/12/31 05:21:07;;;;;;;4.38;3.97;;;9.10;99.90;;;;;;5017539;28;20420;-89
2022/12/31 05:23:34;;;;;;;3.50;2.53;;;9.00;99.90;;;;;;5021212;28;20239;-87
2022/12/31 05:26:01;;;;;;;2.83;2.53;;;9.00;99.90;;;;;;5024829;28;20222;-88
2022/12/31 05:28:28;;;;;;;2.72;2.53;;;8.90;99.90;;;;;;5012986;28;20206;-88
2022/12/31 05:30:55;;;;;;;3.85;3.13;;;8.60;99.90;;;;;;5011702;28;20470;-88
2022/12/31 05:33:23;;;;;;;4.15;2.95;;;8.60;99.90;;;;;;5015657;28;20218;-86
2022/12/31 05:35:50;;;;;;;3.95;3.03;;;8.50;99.90;;;;;;5010565;28;20211;-88
2022/12/31 05:38:16;;;;;;;5.25;2.58;;;8.50;99.90;;;;;;5029039;28;20275;-85
2022/12/31 05:40:43;;;;;;;2.65;2.30;;;8.60;99.90;;;;;;5017388;28;20223;-88
2022/12/31 05:43:11;;;;;;;2.38;2.17;;;8.70;99.90;;;;;;5030712;28;20200;-85
2022/12/31 05:45:37;;;;;;;2.58;2.38;;;8.80;99.90;;;;;;5011822;28;20231;-86
2022/12/31 05:48:05;;;;;;;3.80;3.03;;;8.80;99.90;;;;;;5022554;28;20199;-88
2022/12/31 05:50:32;;;;;;;3.05;2.75;;;8.70;99.90;;;;;;5024424;28;20221;-86
2022/12/31 05:52:59;;;;;;;3.55;2.78;;;8.60;99.90;;;;;;5012212;28;20254;-87
2022/12/31 05:55:26;;;;;;;2.38;2.08;;;8.60;99.90;;;;;;5016463;28;20206;-87
2022/12/31 05:57:53;;;;;;;2.58;2.33;;;8.50;99.90;;;;;;5017082;28;20219;-85
2022/12/31 06:00:20;;;;;;;3.25;2.95;;;8.50;99.90;;;;;;5015601;28;20314;-86
2022/12/31 06:02:47;;;;;;;2.40;2.17;;;8.40;99.90;;;;;;5019751;28;20346;-86
2022/12/31 06:05:14;;;;;;;2.50;2.30;;;8.50;99.90;;;;;;5012482;28;20206;-86
2022/12/31 06:07:48;;;;;;;3.05;2.75;;;8.50;99.90;;;;;;5007328;28;20199;-86
2022/12/31 06:10:14;;;;;;;1.95;1.83;;;8.70;99.90;;;;;;5022451;28;20203;-85
2022/12/31 06:12:41;;;;;;;3.63;2.90;;;8.90;99.90;;;;;;5027565;28;20231;-87
2022/12/31 06:15:09;;;;;;;4.93;2.65;;;8.80;99.90;;;;;;5017516;28;20380;-84
2022/12/31 06:17:36;;;;;;;3.03;2.20;;;8.90;99.90;;;;;;5019633;28;20203;-85
2022/12/31 06:20:03;;;;;;;3.20;2.90;;;8.90;99.90;;;;;;5022216;28;20207;-85
2022/12/31 06:22:38;;;;;;;3.30;2.67;;;9.00;99.90;;;;;;5020718;28;20208;-84
2022/12/31 06:25:05;;;;;;;2.15;1.95;;;8.90;99.90;;;;;;5028509;28;20217;-87
2022/12/31 06:27:33;;;;;;;2.60;2.40;;;8.80;99.90;;;;;;5021488;28;20203;-84
2022/12/31 06:29:59;;;;;;;2.92;2.10;;;8.80;99.90;;;;;;5006927;28;20231;-84
2022/12/31 06:32:27;;;;;;;5.13;3.00;;;8.70;99.90;;;;;;5011952;28;20238;-84
2022/12/31 06:34:54;;;;;;;2.75;2.38;;;8.80;99.90;;;;;;5013571;28;20491;-85
2022/12/31 06:37:20;;;;;;;3.55;3.05;;;8.90;99.90;;;;;;5018805;28;20204;-84
2022/12/31 06:39:48;;;;;;;2.80;2.45;;;8.90;99.90;;;;;;5012301;28;20296;-85
2022/12/31 06:42:14;;;;;;;2.17;2.00;;;8.90;99.90;;;;;;5009484;28;20505;-85
2022/12/31 06:44:42;;;;;;;3.15;2.85;;;8.90;99.90;;;;;;5012664;28;20401;-82
2022/12/31 06:47:08;;;;;;;3.95;3.30;;;8.80;99.90;;;;;;5007632;28;20202;-83
2022/12/31 06:49:35;;;;;;;2.80;2.60;;;8.80;99.90;;;;;;5002614;28;20521;-83
2022/12/31 06:52:02;;;;;;;4.22;3.05;;;8.80;99.90;;;;;;5018026;28;20571;-84
2022/12/31 06:54:29;;;;;;;3.63;3.08;;;9.00;99.90;;;;;;5011583;28;20246;-83
2022/12/31 06:56:56;;;;;;;5.00;4.10;;;9.00;99.90;;;;;;4997567;28;20478;-83
2022/12/31 06:59:28;;;;;;;3.90;3.28;;;9.00;99.90;;;;;;5003819;28;20235;-87
2022/12/31 07:02:03;;;;;;;4.78;3.08;;;9.00;99.90;;;;;;5000160;28;20262;-86
2022/12/31 07:04:54;;;;;;;3.70;3.40;;;9.10;99.90;;;;;;5001114;28;20223;-85
2022/12/31 07:07:38;;;;;;;4.65;3.88;;;9.00;99.90;;;;;;5002030;28;20219;-84
2022/12/31 07:10:13;;;;;;;3.97;3.67;;;9.10;99.90;;;;;;5002593;28;20536;-85
2022/12/31 07:12:52;;;;;;;2.95;2.67;;;9.10;99.90;;;;;;5001848;28;20555;-85
2022/12/31 07:15:41;;;;;;;3.25;2.80;;;9.30;99.90;;;;;;4998934;28;20207;-87
2022/12/31 07:18:28;;;;;;;2.80;2.60;;;9.40;99.90;;;;;;4998211;28;20243;-85
2022/12/31 07:20:55;;;;;;;2.80;2.60;;;9.70;99.90;;;;;;5004071;28;20203;-84
2022/12/31 07:23:23;;;;;;;2.60;2.40;;;9.90;99.90;;;;;;5014497;28;20267;-85
2022/12/31 07:26:22;;;;;;;2.63;2.10;;;10.00;99.90;;;;;;5008383;28;20212;-85
2022/12/31 07:28:59;;;;;;;2.10;1.90;;;10.20;99.90;;;;;;5009829;28;20209;-85
2022/12/31 07:32:05;;;;;;;3.17;2.58;;;10.40;99.90;;;;;;5013652;28;20208;-82
2022/12/31 07:34:40;;;;;;;2.55;2.33;;;10.40;99.90;;;;;;5012998;28;20255;-83
2022/12/31 07:37:25;;;;;;;2.97;2.53;;;10.50;99.90;;;;;;5012869;28;20423;-85
2022/12/31 07:40:21;;;;;;;3.00;2.70;;;10.50;99.90;;;;;;4995456;28;20209;-85
2022/12/31 07:43:00;;;;;;;3.72;2.15;;;10.40;99.90;;;;;;4990845;28;20205;-81
2022/12/31 07:45:39;;;;;;;2.38;2.17;;;10.50;99.90;;;;;;5019886;28;20228;-85
2022/12/31 07:48:24;;;;;;;2.20;2.00;;;10.40;99.90;;;;;;5021229;28;20251;-83
2022/12/31 07:50:53;;;;;;;3.28;2.15;;;10.50;99.90;;;;;;5022900;28;20258;-82
2022/12/31 07:53:23;;;;;;;3.25;2.15;;;10.60;99.90;;;;;;5022971;28;20254;-83
2022/12/31 07:56:01;;;;;;;2.72;2.53;;;10.60;99.90;;;;;;5013727;28;20216;-82
2022/12/31 07:58:39;;;;;;;2.90;2.13;;;10.70;99.90;;;;;;5014783;28;20218;-83
2022/12/31 08:01:18;;;;;;;4.07;3.33;;;10.80;99.90;;;;;;5014602;28;20203;-86
2022/12/31 08:04:01;;;;;;;6.15;2.80;;;10.90;99.90;;;;;;5002711;28;20311;-85
2022/12/31 08:06:47;;;;;;;3.40;2.97;;;10.90;99.90;;;;;;5005225;28;20201;-84
2022/12/31 08:09:47;;;;;;;3.65;2.33;;;11.00;99.90;;;;;;5007025;28;20193;-86
2022/12/31 08:12:15;;;;;;;2.40;2.20;;;11.00;99.90;;;;;;5007175;28;20233;-86
2022/12/31 08:14:44;;;;;;;3.13;2.83;;;10.90;99.90;;;;;;5008128;28;20394;-84
2022/12/31 08:17:13;;;;;;;8.70;6.75;;;10.90;99.90;;;;;;5014027;28;20204;-88
2022/12/31 08:19:41;;;;;;;5.72;4.43;;;10.90;99.90;;;;;;5016058;28;20205;-84
2022/12/31 08:22:23;;;;;;;3.30;2.97;;;11.00;99.90;;;;;;5010068;28;20236;-84
2022/12/31 08:25:17;;;;;;;2.88;2.28;;;11.10;99.90;;;;;;5002810;28;20204;-83
2022/12/31 08:27:47;;;;;;;2.80;2.60;;;11.20;99.90;;;;;;5010129;28;20200;-84
2022/12/31 08:30:18;;;;;;;2.25;2.05;;;11.10;99.90;;;;;;5010031;28;20294;-85
2022/12/31 08:33:08;;;;;;;3.20;2.25;;;11.10;99.90;;;;;;5003975;28;20237;-85
2022/12/31 08:35:56;;;;;;;2.20;1.90;;;11.00;99.90;;;;;;5006359;28;20223;-86
2022/12/31 08:38:54;;;;;;;4.50;2.60;;;11.00;99.90;;;;;;5020501;28;20227;-83
2022/12/31 08:41:32;;;;;;;4.10;2.40;;;11.00;99.90;;;;;;5009290;28;20202;-84
2022/12/31 08:44:43;;;;;;;2.65;1.77;;;11.10;99.90;;;;;;5004162;28;20202;-84
2022/12/31 08:47:37;;;;;;;2.92;2.22;;;11.30;99.90;;;;;;5001220;28;20381;-80
2022/12/31 08:50:05;;;;;;;2.70;2.22;;;11.30;99.90;;;;;;5002970;28;20232;-82
2022/12/31 08:52:35;;;;;;;3.78;2.28;;;11.30;99.90;;;;;;5000959;28;20588;-84
2022/12/31 08:55:03;;;;;;;2.40;2.13;;;11.30;99.90;;;;;;5001938;28;20249;-87
2022/12/31 08:57:49;;;;;;;3.65;2.65;;;11.40;99.90;;;;;;5006390;28;20220;-85
2022/12/31 09:00:18;;;;;;;2.75;1.90;;;11.40;99.90;;;;;;5004092;28;20202;-83
2022/12/31 09:03:03;;;;;;;2.50;2.20;;;11.50;99.90;;;;;;5013006;28;20201;-86
2022/12/31 09:05:46;;;;;;;2.10;1.80;;;11.60;99.90;;;;;;5018156;28;20273;-85
2022/12/31 09:08:37;;;;;;;4.53;3.28;;;11.80;99.90;;;;;;5013146;28;20225;-84
2022/12/31 09:11:32;;;;;;;2.50;2.30;;;12.00;99.90;;;;;;5008893;28;20448;-85
2022/12/31 09:14:17;;;;;;;2.95;2.20;;;12.20;99.90;;;;;;5015510;28;20268;-85
2022/12/31 09:16:59;;;;;;;1.88;1.55;;;12.20;99.90;;;;;;5010870;28;20193;-85
2022/12/31 09:19:27;;;;;;;3.75;2.67;;;12.20;99.90;;;;;;5019560;28;20201;-84
2022/12/31 09:21:54;;;;;;;2.83;1.65;;;12.10;99.90;;;;;;5012555;28;20197;-84
2022/12/31 09:24:21;;;;;;;2.92;2.13;;;12.20;99.90;;;;;;5015253;28;20573;-87
2022/12/31 09:26:55;;;;;;;7.30;3.10;;;12.40;99.90;;;;;;5012407;28;20214;-86
2022/12/31 09:29:31;;;;;;;4.47;2.50;;;12.40;99.90;;;;;;5015554;28;20223;-86
2022/12/31 09:32:06;;;;;;;3.92;1.75;;;12.60;99.90;;;;;;5024297;28;20278;-85
2022/12/31 09:34:41;;;;;;;3.75;2.67;;;12.70;99.90;;;;;;5014254;28;20369;-84
2022/12/31 09:37:20;;;;;;;5.53;2.75;;;13.00;99.90;;;;;;5003188;28;20207;-86
2022/12/31 09:39:48;;;;;;;6.32;3.08;;;13.20;99.90;;;;;;4996903;28;20209;-84
2022/12/31 09:42:25;;;;;;;2.25;1.80;;;13.30;99.90;;;;;;5005889;28;20255;-84
2022/12/31 09:45:21;;;;;;;2.03;1.70;;;13.50;99.90;;;;;;5002290;28;20197;-84
2022/12/31 09:48:06;;;;;;;4.38;2.67;;;13.70;99.90;;;;;;5005108;28;20201;-85
2022/12/31 09:50:39;;;;;;;2.65;1.80;;;13.60;99.90;;;;;;5020814;28;20197;-88
2022/12/31 09:53:32;;;;;;;4.38;2.50;;;13.50;99.90;;;;;;5016544;28;20225;-87
2022/12/31 09:56:11;;;;;;;3.88;2.72;;;13.60;99.90;;;;;;5015675;28;20239;-85
2022/12/31 09:58:49;;;;;;;1.95;1.83;;;13.70;99.90;;;;;;5020998;28;20275;-85
2022/12/31 10:01:17;;;;;;;2.83;1.73;;;13.70;99.90;;;;;;5008091;28;20197;-85
2022/12/31 10:04:05;;;;;;;1.73;1.63;;;13.80;99.90;;;;;;5015042;28;20252;-85
2022/12/31 10:07:19;;;;;;;1.50;1.40;;;13.80;99.90;;;;;;5015775;28;20205;-85
2022/12/31 10:10:07;;;;;;;1.67;1.58;;;13.90;99.90;;;;;;5009935;28;20205;-86
2022/12/31 10:13:09;;;;;;;2.10;1.90;;;14.00;99.90;;;;;;5003968;28;20245;-84
2022/12/31 10:16:24;;;;;;;1.67;1.58;;;14.00;99.90;;;;;;5003774;28;20225;-86
2022/12/31 10:19:03;;;;;;;2.42;2.22;;;14.00;99.90;;;;;;5011839;28;20233;-84
2022/12/31 10:21:54;;;;;;;2.58;2.28;;;14.10;99.90;;;;;;5008594;28;20198;-84
2022/12/31 10:24:42;;;;;;;2.13;1.88;;;14.20;99.90;;;;;;5008765;28;20495;-85
2022/12/31 10:27:17;;;;;;;2.55;1.95;;;14.30;99.90;;;;;;5014951;28;20249;-84
2022/12/31 10:29:56;;;;;;;2.78;2.25;;;14.30;99.90;;;;;;5027948;28;20190;-87
2022/12/31 10:32:50;;;;;;;1.67;1.58;;;14.40;99.90;;;;;;5021425;28;20203;-85
2022/12/31 10:35:55;;;;;;;1.75;1.20;;;14.50;99.90;;;;;;4999967;28;20191;-84
2022/12/31 10:38:32;;;;;;;1.30;1.20;;;14.50;99.90;;;;;;5016427;28;20206;-85
2022/12/31 10:41:18;;;;;;;1.90;1.65;;;14.50;99.90;;;;;;5013995;28;20211;-85
2022/12/31 10:44:27;;;;;;;2.55;2.00;;;14.50;99.90;;;;;;5013499;28;20203;-85
2022/12/31 10:47:16;;;;;;;1.75;1.65;;;14.60;99.90;;;;;;5006385;28;20225;-89
2022/12/31 10:50:00;;;;;;;2.47;1.97;;;14.70;99.90;;;;;;5019415;28;20506;-84
2022/12/31 10:52:39;;;;;;;2.60;2.20;;;14.80;99.90;;;;;;5005885;28;20451;-84
2022/12/31 10:55:16;;;;;;;3.67;1.80;;;15.00;99.90;;;;;;5006509;28;20598;-85
2022/12/31 10:58:04;;;;;;;3.00;1.55;;;15.00;99.90;;;;;;5004685;28;20240;-85
2022/12/31 11:00:46;;;;;;;3.40;1.83;;;15.10;99.90;;;;;;5005690;28;20492;-85
2022/12/31 11:03:31;;;;;;;1.70;1.60;;;15.00;99.90;;;;;;5005878;28;20455;-84
2022/12/31 11:06:22;;;;;;;2.00;1.60;;;15.00;99.90;;;;;;4996477;28;20196;-84
2022/12/31 11:09:20;;;;;;;1.30;1.23;;;14.90;99.90;;;;;;5015226;28;20435;-84
2022/12/31 11:11:53;;;;;;;1.57;1.47;;;14.70;99.90;;;;;;5020971;28;20752;-84
2022/12/31 11:15:06;;;;;;;4.90;1.70;;;14.70;99.90;;;;;;5012895;28;20492;-85
2022/12/31 11:17:48;;;;;;;1.45;1.35;;;14.70;99.90;;;;;;5014813;28;20449;-85
2022/12/31 11:20:42;;;;;;;3.55;1.90;;;14.60;99.90;;;;;;5014341;28;20190;-85
2022/12/31 11:23:44;;;;;;;3.75;2.92;;;14.50;99.90;;;;;;5002727;28;20487;-84
2022/12/31 11:26:39;;;;;;;2.42;2.00;;;14.50;99.90;;;;;;5022768;28;20194;-84
2022/12/31 11:29:28;;;;;;;3.20;1.92;;;14.60;99.90;;;;;;5021714;28;20202;-84
2022/12/31 11:32:00;;;;;;;2.40;1.80;;;14.50;99.90;;;;;;5006474;28;20505;-85
2022/12/31 11:34:56;;;;;;;2.42;1.80;;;14.50;99.90;;;;;;5009886;28;20446;-83
2022/12/31 11:37:39;;;;;;;2.13;1.70;;;14.50;99.90;;;;;;5000416;28;20203;-82
2022/12/31 11:40:40;;;;;;;4.18;1.60;;;14.50;99.90;;;;;;5006580;28;20428;-86
2022/12/31 11:43:30;;;;;;;1.88;1.70;;;14.50;99.90;;;;;;5006874;28;20193;-85
2022/12/31 11:46:15;;;;;;;2.40;2.28;;;14.50;99.90;;;;;;5003959;28;20202;-85
2022/12/31 11:49:07;;;;;;;2.15;1.67;;;14.60;99.90;;;;;;5010556;28;20214;-83
2022/12/31 11:51:41;;;;;;;3.60;1.93;;;14.60;99.90;;;;;;5020537;28;20245;-87
2022/12/31 11:54:37;;;;;;;3.13;2.07;;;14.60;99.90;;;;;;5058685;23;20482;-89
2022/12/31 11:57:32;;;;;;;2.27;1.43;;;14.60;99.90;;;;;;5011806;28;20422;-89
2022/12/31 12:00:19;;;;;;;4.67;1.97;;;14.70;99.90;;;;;;5185863;23;20523;-89
2022/12/31 12:05:23;;;;;;;1.43;1.30;;;14.80;99.90;;;;;;5154580;22;20472;-87
2022/12/31 12:07:52;;;;;;;2.10;1.73;;;14.80;99.90;;;;;;5040636;28;20419;-88
2022/12/31 12:10:41;;;;;;;1.53;1.30;;;14.90;99.90;;;;;;5050920;28;20438;-89
2022/12/31 12:13:23;;;;;;;1.70;1.60;;;15.00;99.90;;;;;;5054058;28;20454;-86
2022/12/31 12:15:54;;;;;;;3.37;1.97;;;14.90;99.90;;;;;;5040538;28;20459;-88
2022/12/31 12:18:35;;;;;;;1.73;1.30;;;14.90;99.90;;;;;;5051844;28;20404;-86
2022/12/31 12:21:06;;;;;;;3.33;2.10;;;14.90;99.90;;;;;;5041686;28;20442;-90
2022/12/31 12:23:33;;;;;;;2.03;1.83;;;15.00;99.90;;;;;;5053929;28;20417;-87
2022/12/31 12:26:01;;;;;;;1.50;1.40;;;15.00;99.90;;;;;;5042794;28;20862;-88
2022/12/31 12:28:40;;;;;;;3.60;2.10;;;14.90;99.90;;;;;;5044920;28;20427;-89
2022/12/31 12:31:19;;;;;;;1.83;1.63;;;15.00;99.90;;;;;;5050802;28;20422;-89
2022/12/31 12:33:49;;;;;;;1.80;1.70;;;15.00;99.90;;;;;;5047088;28;20480;-87
2022/12/31 12:36:19;;;;;;;2.40;1.57;;;14.90;99.90;;;;;;5039719;28;20430;-90
2022/12/31 12:38:46;;;;;;;3.47;2.00;;;15.00;99.90;;;;;;5039746;28;20444;-87
2022/12/31 12:41:24;;;;;;;3.33;2.13;;;15.10;99.90;;;;;;5049959;28;20446;-88
2022/12/31 12:44:21;;;;;;;3.13;1.73;;;15.10;99.90;;;;;;5056007;28;20406;-89
2022/12/31 12:46:51;;;;;;;2.43;2.23;;;15.10;99.90;;;;;;5025245;28;20732;-88
2022/12/31 12:49:27;;;;;;;1.70;1.60;;;15.10;99.90;;;;;;5041449;28;20682;-88
2022/12/31 12:51:54;;;;;;;1.80;1.70;;;15.10;99.90;;;;;;5041582;28;20431;-88
2022/12/31 12:54:40;;;;;;;4.83;4.30;;;15.10;99.90;;;;;;5037269;28;20681;-89
2022/12/31 12:57:26;;;;;;;4.97;2.10;;;15.10;99.90;;;;;;5035911;28;20451;-91
2022/12/31 13:00:19;;;;;;;3.80;2.30;;;14.90;99.90;;;;;;5133097;23;20511;-87
2022/12/31 13:03:19;;;;;;;2.10;1.90;;;14.90;99.90;;;;;;5232748;22;20478;-87
2022/12/31 13:06:24;;;;;;;1.90;1.80;;;14.80;99.90;;;;;;5025039;28;20415;-85
2022/12/31 13:09:31;;;;;;;2.80;1.70;;;14.90;99.90;;;;;;5086277;22;20570;-88
2022/12/31 13:12:17;;;;;;;3.50;2.30;;;14.90;99.90;;;;;;5023824;28;20543;-88
2022/12/31 13:14:58;;;;;;;5.10;2.33;;;14.90;99.90;;;;;;5021140;28;20484;-87
2022/12/31 13:17:55;;;;;;;2.60;1.87;;;15.00;99.90;;;;;;5023264;28;20459;-88
2022/12/31 13:20:39;;;;;;;3.60;3.30;;;15.00;99.90;;;;;;5024408;28;20432;-91
2022/12/31 13:23:37;;;;;;;2.27;2.07;;;15.00;99.90;;;;;;5025042;28;20524;-87
2022/12/31 13:26:30;;;;;;;3.93;2.77;;;14.90;99.90;;;;;;5008284;28;20450;-88
2022/12/31 13:29:00;;;;;;;5.18;2.55;;;14.90;99.90;;;;;;5019936;28;20440;-87
2022/12/31 13:31:37;;;;;;;2.47;2.17;;;14.90;99.90;;;;;;5031708;28;20250;-85
2022/12/31 13:34:15;;;;;;;2.87;1.50;;;15.00;99.90;;;;;;5022458;28;20518;-88
2022/12/31 13:36:46;;;;;;;4.33;2.17;;;14.90;99.90;;;;;;5101720;22;20574;-87
2022/12/31 13:39:23;;;;;;;1.90;1.70;;;14.90;99.90;;;;;;5037105;28;20497;-88
2022/12/31 13:42:08;;;;;;;2.07;1.83;;;14.90;99.90;;;;;;5138776;23;20802;-88
2022/12/31 13:44:58;;;;;;;1.80;1.70;;;14.90;99.90;;;;;;5024127;28;20439;-87
2022/12/31 13:47:48;;;;;;;2.57;2.37;;;14.80;99.90;;;;;;5020956;28;20439;-88
2022/12/31 13:50:31;;;;;;;2.60;2.40;;;14.70;99.90;;;;;;5018499;28;20436;-90
2022/12/31 13:53:17;;;;;;;2.20;1.90;;;14.80;99.90;;;;;;5020858;28;20411;-88
2022/12/31 13:55:50;;;;;;;4.73;2.30;;;14.80;99.90;;;;;;5024691;28;20403;-86